• Join FlightAware (Why Join?)
  • Login
  • US Flag 
03:28AM EDT


 

Airport Tracker/Info


-or-


 

Live Flight TrackerFlight Track Log ✈ UAL4236 ✈ 15-Apr-2013 ✈ KIAH - KELP

Flight Track Log - Related Links

Times and Time Zones

All times are in EDT time to prevent confusion due to time zone crossing. See the UAL4236 flight status page for this flight to view local times or setup timezone preferences in your user account.

Time Position Orientation Groundspeed Altitude Reporting Facility
EDT Latitude Longitude Course Direction KTS MPH feet Rate Location/Type
09:57AM 29.9594 -95.3414 276° West 146 168 800  Level Houston Center
09:57AM 29.9319 -95.3617 213° Southwest 198 228 1,900 1,320 Climbing Houston Center
09:58AM 29.9203 -95.3861 241° Southwest 214 246 2,400 1,560 Climbing Houston Center
09:58AM 29.9000 -95.4258 240° Southwest 247 284 3,500 1,920 Climbing Houston Center
09:59AM 29.8850 -95.4525 237° Southwest 235 270 4,400 2,040 Climbing Houston Center
09:59AM 29.8600 -95.4956 236° Southwest 257 296 5,600 1,920 Climbing Houston Center
10:00AM 30.0302 -95.7716 277° West  Level FlightAware Approximate
10:00AM 29.8458 -95.5225 239° Southwest 254 292 6,400  Level Houston Center
10:01AM 30.0402 -95.8817 276° West  Level FlightAware Approximate
10:01AM 29.8389 -95.6053 264° West 274 315 8,500  Level Houston Center
10:02AM 30.0493 -95.9920 276° West  Level FlightAware Approximate
10:02AM 29.8833 -95.6928 300° West 272 313 10,300  Level Houston Center
10:03AM 29.9272 -95.7789 300° West 308 354 10,900 720 Climbing Houston Center
10:04AM 29.9756 -95.8750 300° West 342 394 11,900 960 Climbing Houston Center
10:05AM 30.0253 -95.9728 300° West 352 405 12,900 960 Climbing Houston Center
10:06AM 30.0758 -96.0867 297° West 362 417 14,000 960 Climbing Houston Center
10:07AM 30.0917 -96.1994 279° West 359 413 15,000 960 Climbing Houston Center
10:08AM 30.1100 -96.3131 281° West 360 414 16,000 960 Climbing Houston Center
10:09AM 30.1292 -96.4383 280° West 361 415 17,100 1,020 Climbing Houston Center
10:10AM 30.1467 -96.5533 280° West 360 414 18,200 960 Climbing Houston Center
10:11AM 30.1633 -96.6672 280° West 358 412 19,200 960 Climbing Houston Center
10:12AM 30.1800 -96.7806 280° West 355 409 20,200 960 Climbing Houston Center
10:13AM 30.1964 -96.8964 279° West 359 413 21,200 960 Climbing Houston Center
10:14AM 30.2144 -97.0103 280° West 358 412 22,200 1,020 Climbing Houston Center
10:15AM 30.2342 -97.1447 280° West 360 414 23,400 1,020 Climbing Houston Center
10:16AM 30.2500 -97.2589 279° West 357 411 24,400 960 Climbing Houston Center
10:17AM 30.2700 -97.3733 281° West 358 412 25,400 960 Climbing Houston Center
10:18AM 30.2922 -97.4867 283° West 358 412 26,400 960 Climbing Houston Center
10:19AM 30.3142 -97.5986 283° West 353 406 27,400 960 Climbing Houston Center
10:20AM 30.3358 -97.7100 283° West 350 403 28,400 960 Climbing Houston Center
10:22AM 30.3575 -97.8200 283° West 347 399 29,400 720 Climbing Houston Center
10:23AM 30.3781 -97.9289 282° West 344 396 30,000 240 Climbing Houston Center
10:24AM 30.4000 -98.0456 282° West 361 415 30,000  Level Houston Center
10:25AM 30.4297 -98.1906 283° West 388 447 30,000  Level Houston Center
10:26AM 30.4517 -98.3150 282° West 390 449 30,000  Level Houston Center
10:27AM 30.4747 -98.4397 282° West 391 450 30,000 240 Level Houston Center
10:28AM 30.4969 -98.5633 282° West 387 445 30,500 720 Climbing Houston Center
10:29AM 30.5203 -98.6844 283° West 379 436 31,500 960 Climbing Houston Center
10:30AM 30.5428 -98.8036 282° West 376 433 32,600 960 Climbing Houston Center
10:31AM 30.5597 -98.9181 280° West 360 414 33,600 660 Climbing Houston Center
10:32AM 30.5864 -99.0556 283° West 363 418 34,000 180 Climbing Houston Center
10:33AM 30.6058 -99.1750 281° West 370 426 34,000  Level Houston Center
10:34AM 30.6283 -99.2961 282° West 376 433 34,000  Level Houston Center
10:35AM 30.6528 -99.4194 283° West 385 443 34,000  Level Houston Center
10:36AM 30.6742 -99.5406 282° West 379 436 34,000  Level Houston Center
10:37AM 30.6969 -99.6642 282° West 382 440 34,000  Level Houston Center
10:38AM 30.7178 -99.7875 281° West 385 443 34,000  Level Houston Center
10:39AM 30.7436 -99.9308 282° West 386 444 34,000  Level Houston Center
10:40AM 30.7636 -100.0542 281° West 385 443 34,000  Level Houston Center
10:41AM 30.7831 -100.1658 281° West 385 443 34,000 -60 Level Houston Center
10:42AM 30.8033 -100.2864 281° West 383 441 33,900  Descending Houston Center
10:43AM 30.8278 -100.4306 281° West 377 434 34,000  Climbing Houston Center
10:44AM 30.8486 -100.5522 281° West 382 440 34,000  Level Houston Center
10:45AM 30.8672 -100.6717 280° West 377 434 34,000  Level Houston Center
10:46AM 30.8947 -100.7886 285° West 374 430 34,000  Level Houston Center
10:47AM 30.9097 -100.9103 278° West 377 434 34,000  Level Houston Center
10:48AM 30.9386 -101.0544 283° West 378 435 34,000  Level Houston Center
10:49AM 30.9578 -101.1733 281° West 374 430 34,000  Level Houston Center
10:50AM 30.9797 -101.2906 282° West 370 426 34,000  Level Houston Center
10:51AM 30.9942 -101.3878 280° West 377 434 34,000  Level Albuquerque Center
10:52AM 31.0136 -101.5097 281° West 382 440 34,000  Level Albuquerque Center
10:53AM 31.0322 -101.6306 280° West 380 437 34,000  Level Albuquerque Center
10:54AM 31.0519 -101.7508 281° West 380 437 34,000  Level Albuquerque Center
10:55AM 31.0742 -101.8964 280° West 380 437 34,000  Level Albuquerque Center
10:56AM 31.0928 -102.0144 280° West 391 450 34,000  Level Albuquerque Center
10:58AM 31.1117 -102.1369 280° West 388 447 34,000  Level Albuquerque Center
10:59AM 31.1308 -102.2575 281° West 381 438 34,000  Level Albuquerque Center
11:00AM 31.1494 -102.3814 280° West 386 444 34,000  Level Albuquerque Center
11:01AM 31.1725 -102.5283 280° West 385 443 34,000  Level Albuquerque Center
11:02AM 31.1894 -102.6383 280° West 378 435 34,000  Level Albuquerque Center
11:03AM 31.2083 -102.7600 280° West 380 437 34,000  Level Albuquerque Center
11:04AM 31.2294 -102.9064 280° West 381 438 34,000  Level Albuquerque Center
11:05AM 31.2483 -103.0258 281° West 377 434 34,000  Level Albuquerque Center
11:06AM 31.2653 -103.1472 279° West 378 435 34,000  Level Albuquerque Center
11:07AM 31.2822 -103.2689 279° West 379 436 34,000  Level Albuquerque Center
11:08AM 31.3011 -103.3883 281° West 375 432 34,000  Level Albuquerque Center
11:09AM 31.3181 -103.5103 279° West 379 436 34,000  Level Albuquerque Center
11:10AM 31.3358 -103.6314 280° West 378 435 34,000 -60 Level Albuquerque Center
11:11AM 31.3586 -103.7767 280° West 378 435 33,900  Descending Albuquerque Center
11:12AM 31.3736 -103.8994 278° West 377 434 34,000  Climbing Albuquerque Center
11:13AM 31.3931 -104.0219 281° West 382 440 34,000  Level Albuquerque Center
11:14AM 31.4111 -104.1442 280° West 383 441 34,000  Level Albuquerque Center
11:15AM 31.4286 -104.2683 279° West 385 443 34,000  Level Albuquerque Center
11:16AM 31.4461 -104.3939 279° West 389 448 34,000  Level Albuquerque Center
11:17AM 31.4647 -104.5450 278° West 392 451 34,000 -360 Level Albuquerque Center
11:18AM 31.4772 -104.6725 277° West 395 455 33,300 -1,200 Descending Albuquerque Center
11:19AM 31.4903 -104.7975 277° West 394 453 31,600 -1,920 Descending Albuquerque Center
11:20AM 31.5031 -104.9228 277° West 391 450 29,400 -2,220 Descending Albuquerque Center
11:21AM 31.5153 -105.0528 276° West 398 458 27,100 -2,460 Descending Albuquerque Center
11:22AM 31.5319 -105.2153 277° West 417 480 24,400 -2,460 Descending Albuquerque Center
11:23AM 31.5450 -105.3506 276° West 422 486 22,100 -2,400 Descending Albuquerque Center
11:24AM 31.5475 -105.3983 274° West 414 476 21,200 -2,520 Descending Albuquerque Center
11:24AM 31.5547 -105.4589 278° West 404 465 20,100 -2,400 Descending Albuquerque Center
11:25AM 31.5678 -105.5853 277° West 395 455 17,600 -2,340 Descending Albuquerque Center
11:25AM 31.5697 -105.6069 276° West 393 452 17,200 -2,460 Descending Albuquerque Center
11:26AM 31.5800 -105.7294 276° West 378 435 14,900 -2,340 Descending Albuquerque Center
11:27AM 31.6036 -105.8333 285° West 354 407 13,100 -2,160 Descending Albuquerque Center
11:27AM 31.6186 -105.8586 305° West 350 403 12,300 -3,000 Descending Albuquerque Center
11:28AM 31.6442 -105.9128 299° West 333 383 10,400 -2,220 Descending Albuquerque Center
11:29AM 31.6647 -105.9517 302° West 332 382 10,100 -420 Descending Albuquerque Center
11:29AM 31.6883 -106.0017 299° West 262 302 10,000 -600 Descending Albuquerque Center
11:30AM 31.6997 -106.0253 300° West 262 302 9,500 -1,200 Descending Albuquerque Center
11:30AM 31.7189 -106.0639 300° West 204 235 8,800 -1,500 Descending Albuquerque Center
11:31AM 31.7303 -106.0842 303° West 214 246 8,000 -1,740 Descending Albuquerque Center
11:31AM 31.7431 -106.1253 290° West 202 232 7,100 -1,380 Descending Albuquerque Center
11:32AM 31.7517 -106.1481 294° West 210 242 6,600 -900 Descending Albuquerque Center
11:32AM 31.7661 -106.1919 291° West 219 252 6,200 -780 Descending Albuquerque Center
11:33AM 31.7733 -106.2150 290° West 218 251 5,800 -780 Descending Albuquerque Center